Share

Quinter, KS (67752)

South Gove (KKSGOVE2) Elev 2631 ft | 38.81 °N, 100.46 °W | Change Station

Current weather conditions updated 6 minutes ago

Clear
Clear
40.1 °F
Feels Like 33 °F
N
12.5
Wind Variable Wind from ENE
Sunrise 7:01 AM
Sunset 8:20 PM
Moon Waning Gibbous

Today is forecast to be Much Cooler than yesterday.

Pressure 30.21 in
Visibility 10.0 miles
Clouds Clear
Windchill 33 °F
Dew Point 32 °F
Humidity 72%
Rainfall 0.00 in
Snow Depth Not available.
UV 0 out of 16
Pollen 10.80 out of 12
Air Quality Not available.
Flu Activity Sporadic
METAR KHLC 170653Z AUTO 02009KT 10SM CLR 03/M02 A3021 RMK AO2 SLP229 T00281022

More Conditions Fewer Conditions

Pressure 30.21 in
Visibility 10.0 miles
Clouds Clear
Windchill 33 °F
Dew Point 32 °F
Humidity 72%
Rainfall 0.00 in
Snow Depth Not available.
UV 0 out of 16
Pollen 10.80 out of 12
Air Quality Not available.
Flu Activity Sporadic
METAR KHLC 170653Z AUTO 02009KT 10SM CLR 03/M02 A3021 RMK AO2 SLP229 T00281022

More Conditions Fewer Conditions

10-Day Forecast

Almanac

Astronomy

Apr. 17, 2014 Rise Set
Actual Time 7:01 AM CDT 8:20 PM CDT
Civil Twilight 6:33 AM CDT 8:47 PM CDT
Nautical Twilight 6:00 AM CDT 9:21 PM CDT
Astronomical Twilight 5:26 AM CDT 9:56 PM CDT
Moon 11:06 PM CDT 8:35 AM CDT
Length of Visible Light 14h 13m
Length of Day
13h 18m
Tomorrow will be 2m 23s longer.
Waning Gibbous, 95% of the Moon is Illuminated
Today
Waning Gibbous
Apr 22
Last Quarter
Apr 29
New
May 6
First Quarter
May 14
Full

Today's Extremes

State Highs State Lows

Community

  • Sunset over the Bay
    Sunset over the Bay
  • symphony in blue....
    symphony in blue....
  • Dawn Surprise
    Dawn Surprise
  • Yucca delight
    Yucca delight
  • Sunset inside of the Ocean
    Sunset inside of the Ocean

WunderPhotos

Upload Photos

1,701,875 photos uploaded!

WunderBlogs® & News

Nearby

Snow Depth

Station Depth Elevation
No new snow has been reported.

Coastal Water Temperatures

Place Temperature
No Stations Reporting

Earthquake Activity

City Distance Mag. Time & Date
No recent earthquake activity has been reported nearby.
Minimum magnitude displayed is 2.5.

Nearby Weather Stations

Station Location Temp. Windchill Dew Point Humidity Wind Precip. Elev Updated Type
MesoWest QUNTER , Park, KS 47 °F 47 °F - - North  at  - 0.00 in / hr 2638 ft 12:40 AM CDT MADIS
South Gove, Gove, KS 40.1 °F 33 °F 32 °F 72% ENE  at  12.5 mph - / hr 2631 ft 2:19 AM CDT Normal
WaKeeney East Side, WaKeeney, KS 36.7 °F 37 °F 27 °F 67% North  at  0.0 mph 0.00 in / hr 2461 ft 2:25 AM CDT Normal
MesoWest GRINEL , Grinnell, KS 46 °F 46 °F - - North  at  - 0.00 in / hr 2879 ft 11:15 PM CDT MADIS

Show More Stations Show Fewer Stations

What do you think?

We're not finished. Please let us know what you like, what you don't like, and what you are still missing.